createdAt,value
2017-07-20T00:00:13.227Z,57.50
2017-07-20T00:02:40.777Z,57.50
2017-07-20T00:05:08.317Z,58.30
2017-07-20T00:07:35.869Z,58.70
2017-07-20T00:10:04.173Z,59.80
2017-07-20T00:12:31.734Z,59.70
2017-07-20T00:14:59.281Z,61.00
2017-07-20T00:17:26.833Z,60.10
2017-07-20T00:19:54.390Z,60.30
2017-07-20T00:22:21.930Z,60.50
2017-07-20T00:24:50.259Z,60.20
2017-07-20T00:27:17.792Z,60.10
2017-07-20T00:29:45.343Z,60.30
2017-07-20T00:32:12.905Z,61.50
2017-07-20T00:34:40.449Z,61.40
2017-07-20T00:37:08.769Z,61.60
2017-07-20T00:39:36.309Z,61.50
2017-07-20T00:42:03.852Z,61.70
2017-07-20T00:44:32.177Z,63.40
2017-07-20T00:46:59.721Z,63.40
2017-07-20T00:49:27.278Z,62.40
2017-07-20T00:51:54.820Z,62.40
2017-07-20T00:54:22.366Z,61.80
2017-07-20T00:56:50.693Z,62.50
2017-07-20T00:59:18.224Z,62.50
2017-07-20T01:01:45.790Z,63.60
2017-07-20T01:04:13.332Z,62.80
2017-07-20T01:06:40.898Z,62.90
2017-07-20T01:09:08.473Z,62.70
2017-07-20T01:11:36.171Z,63.10
2017-07-20T01:14:04.517Z,65.10
2017-07-20T01:16:32.057Z,64.20
2017-07-20T01:18:59.621Z,65.90
2017-07-20T01:21:27.157Z,67.80
2017-07-20T01:23:54.717Z,67.50
2017-07-20T01:26:23.026Z,66.10
2017-07-20T01:28:50.589Z,66.20
2017-07-20T01:31:18.405Z,67.60
2017-07-20T01:33:45.965Z,67.60
2017-07-20T01:36:14.274Z,68.20
2017-07-20T01:38:41.833Z,68.10
2017-07-20T01:41:09.380Z,68.20
2017-07-20T01:43:36.937Z,67.70
2017-07-20T01:46:04.494Z,67.20
2017-07-20T01:48:32.057Z,67.50
2017-07-20T01:50:59.600Z,67.90
2017-07-20T01:53:27.942Z,68.20
2017-07-20T01:55:55.496Z,68.20
2017-07-20T01:58:23.036Z,68.20
2017-07-20T02:00:50.594Z,68.30
2017-07-20T02:03:18.137Z,68.60
2017-07-20T02:05:45.698Z,69.20
2017-07-20T02:08:13.237Z,69.70
2017-07-20T02:10:41.552Z,70.60
2017-07-20T02:13:09.097Z,70.60
2017-07-20T02:15:36.656Z,70.70
2017-07-20T02:18:04.193Z,71.20
2017-07-20T02:20:32.521Z,71.30
2017-07-20T02:23:00.072Z,71.20
2017-07-20T02:25:27.636Z,71.00
2017-07-20T02:27:55.181Z,70.90
2017-07-20T02:30:22.747Z,71.40
2017-07-20T02:32:50.295Z,71.40
2017-07-20T02:35:17.846Z,71.70
2017-07-20T02:37:45.438Z,71.80
2017-07-20T02:40:12.963Z,72.10
2017-07-20T02:42:40.480Z,72.20
2017-07-20T02:45:08.820Z,72.40
2017-07-20T02:47:36.319Z,72.40
2017-07-20T02:50:03.847Z,72.40
2017-07-20T02:52:31.354Z,72.60
2017-07-20T02:54:59.618Z,72.50
2017-07-20T02:57:27.135Z,72.40
2017-07-20T02:59:54.639Z,73.00
2017-07-20T03:02:22.927Z,72.90
2017-07-20T03:04:50.433Z,72.90
2017-07-20T03:07:17.951Z,73.10
2017-07-20T03:09:45.450Z,73.10
2017-07-20T03:12:12.975Z,72.80
2017-07-20T03:14:40.483Z,73.10
2017-07-20T03:17:07.998Z,73.30
2017-07-20T03:19:35.499Z,73.20
2017-07-20T03:22:14.821Z,73.40
2017-07-20T03:24:42.322Z,73.50
2017-07-20T03:27:10.598Z,73.60
2017-07-20T03:29:38.875Z,73.80
2017-07-20T03:32:07.158Z,73.70
2017-07-20T03:34:34.664Z,73.60
2017-07-20T03:37:02.183Z,74.00
2017-07-20T03:39:29.708Z,73.90
2017-07-20T03:41:57.236Z,74.00
2017-07-20T03:44:24.744Z,74.50
2017-07-20T03:46:52.272Z,74.40
2017-07-20T03:49:19.779Z,74.60
2017-07-20T03:51:47.276Z,74.60
2017-07-20T03:54:14.787Z,74.80
2017-07-20T03:56:42.284Z,74.90
2017-07-20T03:59:09.804Z,74.80
2017-07-20T04:01:37.299Z,74.70
2017-07-20T04:04:04.819Z,74.70
2017-07-20T04:06:32.320Z,74.90
2017-07-20T04:08:59.843Z,74.40
2017-07-20T04:11:27.364Z,74.90
2017-07-20T04:13:54.884Z,75.10
2017-07-20T04:16:22.392Z,74.80
2017-07-20T04:18:50.680Z,74.70
2017-07-20T04:21:18.188Z,74.70
2017-07-20T04:23:45.709Z,74.90
2017-07-20T04:26:13.215Z,74.30
2017-07-20T04:28:40.736Z,73.50
2017-07-20T04:31:08.239Z,73.40
2017-07-20T04:33:35.771Z,73.50
2017-07-20T04:36:03.275Z,73.30
2017-07-20T04:38:31.555Z,73.10
2017-07-20T04:40:59.836Z,72.90
2017-07-20T04:43:27.363Z,72.90
2017-07-20T04:45:54.872Z,73.10
2017-07-20T04:48:22.375Z,73.10
2017-07-20T04:50:49.913Z,73.30
2017-07-20T04:53:17.427Z,73.40
2017-07-20T04:55:44.963Z,73.50
2017-07-20T04:58:12.472Z,73.50
2017-07-20T05:00:39.991Z,73.50
2017-07-20T05:03:08.264Z,72.40
2017-07-20T05:05:36.556Z,71.50
2017-07-20T05:08:04.068Z,71.50
2017-07-20T05:10:31.598Z,70.70
2017-07-20T05:12:59.108Z,70.00
2017-07-20T05:15:26.627Z,69.60
2017-07-20T05:17:54.131Z,68.70
2017-07-20T05:20:22.423Z,67.50
2017-07-20T05:22:49.926Z,67.40
2017-07-20T05:25:17.444Z,67.80
2017-07-20T05:27:44.955Z,67.20
2017-07-20T05:30:12.464Z,67.10
2017-07-20T05:32:39.983Z,66.60
2017-07-20T05:35:07.487Z,66.70
2017-07-20T05:37:35.007Z,66.90
2017-07-20T05:40:02.514Z,65.60
2017-07-20T05:42:30.023Z,65.20
2017-07-20T05:44:57.539Z,64.30
2017-07-20T05:47:25.044Z,65.00
2017-07-20T05:49:52.559Z,65.90
2017-07-20T05:52:20.066Z,66.50
2017-07-20T05:54:48.351Z,67.20
2017-07-20T05:57:16.650Z,66.90
2017-07-20T05:59:44.161Z,66.90
2017-07-20T06:02:11.679Z,67.00
2017-07-20T06:04:39.187Z,67.50
2017-07-20T06:07:06.688Z,67.60
2017-07-20T06:09:34.224Z,67.60
2017-07-20T06:12:01.720Z,66.80
2017-07-20T06:14:29.234Z,66.10
2017-07-20T06:16:56.735Z,66.30
2017-07-20T06:19:24.242Z,65.90
2017-07-20T06:21:53.351Z,65.60
2017-07-20T06:24:20.859Z,65.70
2017-07-20T06:26:48.374Z,64.60
2017-07-20T06:29:15.875Z,63.80
2017-07-20T06:31:43.395Z,63.70
2017-07-20T06:34:10.904Z,64.30
2017-07-20T06:36:38.411Z,63.50
2017-07-20T06:39:05.931Z,63.50
2017-07-20T06:41:33.427Z,64.20
2017-07-20T06:44:00.943Z,65.00
2017-07-20T06:46:28.438Z,65.20
2017-07-20T06:48:55.983Z,64.10
2017-07-20T06:51:24.247Z,63.10
2017-07-20T06:53:51.756Z,63.00
2017-07-20T06:56:19.271Z,62.10
2017-07-20T06:58:46.779Z,60.00
2017-07-20T07:01:14.295Z,59.40
2017-07-20T07:03:41.836Z,58.60
2017-07-20T07:06:10.139Z,59.30
2017-07-20T07:08:37.668Z,59.30
2017-07-20T07:11:05.172Z,58.80
2017-07-20T07:13:32.683Z,58.50
2017-07-20T07:16:00.197Z,58.80
2017-07-20T07:18:27.696Z,56.70
2017-07-20T07:20:55.224Z,56.60
2017-07-20T07:23:22.719Z,55.80
2017-07-20T07:25:50.224Z,52.30
2017-07-20T07:28:17.743Z,51.60
2017-07-20T07:30:46.006Z,53.10
2017-07-20T07:33:13.531Z,53.00
2017-07-20T07:35:41.031Z,52.70
2017-07-20T07:38:09.299Z,51.60
2017-07-20T07:40:36.822Z,51.00
2017-07-20T07:43:04.319Z,50.50
2017-07-20T07:45:31.839Z,51.80
2017-07-20T07:47:59.346Z,51.70
2017-07-20T07:50:27.615Z,49.40
2017-07-20T07:52:55.904Z,51.90
2017-07-20T07:55:24.167Z,52.20
2017-07-20T07:57:51.692Z,52.00
2017-07-20T08:00:19.199Z,50.10
2017-07-20T08:02:47.467Z,51.00
2017-07-20T08:05:15.751Z,51.60
2017-07-20T08:07:44.017Z,50.20
2017-07-20T08:10:12.303Z,49.70
2017-07-20T08:12:39.914Z,49.70
2017-07-20T08:15:08.245Z,50.80
2017-07-20T08:17:36.527Z,50.50
2017-07-20T08:20:04.040Z,50.50
2017-07-20T08:22:31.567Z,49.90
2017-07-20T08:24:59.080Z,50.50
2017-07-20T08:27:27.673Z,51.40
2017-07-20T08:29:55.931Z,51.20
2017-07-20T08:32:23.439Z,51.20
2017-07-20T08:34:50.962Z,52.80
2017-07-20T08:37:19.237Z,51.70
2017-07-20T08:39:47.527Z,52.30
2017-07-20T08:42:15.024Z,52.30
2017-07-20T08:44:42.551Z,52.10
2017-07-20T08:47:10.060Z,51.20
2017-07-20T08:49:37.582Z,51.10
2017-07-20T08:52:05.078Z,49.80
2017-07-20T08:54:32.571Z,50.70
2017-07-20T08:57:00.851Z,48.20
2017-07-20T08:59:28.355Z,48.10
2017-07-20T09:01:55.881Z,47.50
2017-07-20T09:04:23.384Z,48.40
2017-07-20T09:06:50.894Z,48.50
2017-07-20T09:09:18.386Z,48.60
2017-07-20T09:11:45.931Z,47.20
2017-07-20T09:14:13.422Z,48.80
2017-07-20T09:16:40.919Z,49.40
2017-07-20T09:19:08.430Z,46.40
2017-07-20T09:21:35.922Z,47.30
2017-07-20T09:24:04.204Z,45.90
2017-07-20T09:26:32.466Z,46.50
2017-07-20T09:29:00.753Z,46.80
2017-07-20T09:31:29.023Z,47.60
2017-07-20T09:33:57.307Z,47.60
2017-07-20T09:36:24.803Z,47.50
2017-07-20T09:38:52.343Z,48.10
2017-07-20T09:41:19.911Z,46.80
2017-07-20T09:43:47.518Z,46.40
2017-07-20T09:46:15.824Z,47.70
2017-07-20T09:48:43.323Z,47.70
2017-07-20T09:51:10.834Z,46.50
2017-07-20T09:53:39.094Z,46.40
2017-07-20T09:56:06.606Z,46.40
2017-07-20T09:58:34.111Z,48.50
2017-07-20T10:01:01.622Z,46.20
2017-07-20T10:03:29.115Z,47.60
2017-07-20T10:05:56.626Z,45.90
2017-07-20T10:08:24.130Z,45.40
2017-07-20T10:10:51.645Z,44.80
2017-07-20T10:13:19.147Z,42.60
2017-07-20T10:15:46.647Z,43.20
2017-07-20T10:18:14.168Z,42.80
2017-07-20T10:20:41.666Z,43.50
2017-07-20T10:23:09.179Z,43.00
2017-07-20T10:25:36.676Z,43.90
2017-07-20T10:28:04.189Z,45.30
2017-07-20T10:30:31.686Z,42.30
2017-07-20T10:32:59.210Z,45.10
2017-07-20T10:35:26.707Z,42.10
2017-07-20T10:37:54.213Z,42.70
2017-07-20T10:40:21.723Z,42.20
2017-07-20T10:42:49.218Z,45.00
2017-07-20T10:45:16.734Z,43.30
2017-07-20T10:47:44.999Z,44.00
2017-07-20T10:50:13.279Z,45.20
2017-07-20T10:52:41.551Z,45.00
2017-07-20T10:55:09.831Z,43.40
2017-07-20T10:57:38.091Z,43.50
2017-07-20T11:00:06.411Z,44.40
2017-07-20T11:02:33.915Z,44.10
2017-07-20T11:05:01.424Z,44.10
2017-07-20T11:07:28.938Z,44.50
2017-07-20T11:09:57.015Z,44.40
2017-07-20T11:12:25.303Z,45.80
2017-07-20T11:14:53.563Z,45.40
2017-07-20T11:17:21.079Z,45.40
2017-07-20T11:19:48.574Z,45.80
2017-07-20T11:22:16.083Z,45.70
2017-07-20T11:24:43.583Z,46.40
2017-07-20T11:27:11.103Z,45.70
2017-07-20T11:29:38.598Z,44.50
2017-07-20T11:32:06.091Z,43.60
2017-07-20T11:34:34.379Z,46.00
2017-07-20T11:37:01.875Z,46.00
2017-07-20T11:39:29.387Z,45.10
2017-07-20T11:41:56.887Z,47.00
2017-07-20T11:44:24.407Z,46.80
2017-07-20T11:46:51.906Z,44.40
2017-07-20T11:49:19.453Z,44.60
2017-07-20T11:51:46.947Z,44.60
2017-07-20T11:54:14.451Z,44.80
2017-07-20T11:56:41.974Z,44.00
2017-07-20T11:59:09.467Z,45.10
2017-07-20T12:01:36.983Z,44.80
2017-07-20T12:04:04.478Z,42.90
2017-07-20T12:09:01.638Z,45.20
2017-07-20T12:11:29.157Z,47.70
2017-07-20T12:13:56.659Z,49.20
2017-07-20T12:16:24.179Z,48.80
2017-07-20T12:18:51.685Z,48.70
2017-07-20T12:21:19.183Z,49.00
2017-07-20T12:23:46.770Z,50.10
2017-07-20T12:26:15.035Z,51.60
2017-07-20T12:28:42.550Z,51.60
2017-07-20T12:31:10.040Z,51.60
2017-07-20T12:33:37.552Z,52.60
2017-07-20T12:36:05.051Z,52.50
2017-07-20T12:38:32.563Z,52.90
2017-07-20T12:41:00.055Z,53.70
2017-07-20T12:43:27.554Z,52.30
2017-07-20T12:45:55.839Z,52.70
2017-07-20T12:48:24.113Z,53.70
2017-07-20T12:50:52.390Z,54.50
2017-07-20T12:53:20.650Z,55.80
2017-07-20T12:55:48.172Z,55.80
2017-07-20T12:58:15.671Z,57.50
2017-07-20T13:00:43.191Z,62.00
2017-07-20T13:03:10.685Z,70.20
2017-07-20T13:05:38.191Z,75.60
2017-07-20T13:08:05.706Z,78.20
2017-07-20T13:10:33.211Z,79.70
2017-07-20T13:13:00.722Z,82.60
2017-07-20T13:15:28.233Z,84.80
2017-07-20T13:17:55.751Z,87.20
2017-07-20T13:20:23.250Z,86.70
2017-07-20T13:22:50.758Z,88.60
2017-07-20T13:25:19.022Z,89.00
2017-07-20T13:27:46.530Z,88.80
2017-07-20T13:30:14.026Z,89.40
2017-07-20T13:32:41.523Z,90.30
2017-07-20T13:35:09.078Z,90.90
2017-07-20T13:37:36.597Z,91.10
2017-07-20T13:40:04.120Z,91.30
2017-07-20T13:42:31.626Z,91.30
2017-07-20T13:44:59.147Z,91.90
2017-07-20T13:47:26.752Z,92.20
2017-07-20T13:49:55.047Z,93.10
2017-07-20T13:52:23.306Z,93.40
2017-07-20T13:54:50.831Z,93.40
2017-07-20T13:57:18.335Z,93.50
2017-07-20T13:59:46.598Z,93.60
2017-07-20T14:02:14.870Z,93.70
2017-07-20T14:04:42.367Z,93.80
2017-07-20T14:07:09.891Z,94.10
2017-07-20T14:09:37.391Z,94.30
2017-07-20T14:12:04.902Z,94.90
2017-07-20T14:14:32.400Z,94.80
2017-07-20T14:16:59.919Z,94.60
2017-07-20T14:19:27.414Z,94.60
2017-07-20T14:21:54.927Z,94.80
2017-07-20T14:24:22.422Z,94.70
2017-07-20T14:26:49.947Z,94.60
2017-07-20T14:29:17.443Z,95.00
2017-07-20T14:31:44.942Z,93.80
2017-07-20T14:34:12.459Z,93.90
2017-07-20T14:36:39.958Z,94.20
2017-07-20T14:39:07.471Z,93.90
2017-07-20T14:41:34.975Z,94.40
2017-07-20T14:44:02.491Z,94.10
2017-07-20T14:46:30.000Z,94.90
2017-07-20T14:48:57.510Z,94.40
2017-07-20T14:51:25.006Z,94.50
2017-07-20T14:53:52.518Z,94.80
2017-07-20T14:56:20.014Z,95.10
2017-07-20T14:58:47.530Z,94.30
2017-07-20T15:01:15.026Z,94.30
2017-07-20T15:03:42.532Z,93.70
2017-07-20T15:06:10.063Z,94.00
2017-07-20T15:08:37.574Z,93.90
2017-07-20T15:11:05.086Z,93.90
2017-07-20T15:13:32.592Z,93.90
2017-07-20T15:16:00.114Z,93.60
2017-07-20T15:18:28.378Z,93.40
2017-07-20T15:20:55.902Z,93.00
2017-07-20T15:23:23.400Z,93.20
2017-07-20T15:25:50.898Z,92.80
2017-07-20T15:28:18.425Z,92.80
2017-07-20T15:30:45.922Z,93.20
2017-07-20T15:33:13.446Z,93.70
2017-07-20T15:35:40.939Z,93.90
2017-07-20T15:38:08.450Z,92.70
2017-07-20T15:40:35.946Z,93.10
2017-07-20T15:43:03.466Z,92.90
2017-07-20T15:45:30.959Z,92.30
2017-07-20T15:47:58.459Z,92.30
2017-07-20T15:50:25.974Z,92.90
2017-07-20T15:52:53.466Z,92.80
2017-07-20T15:55:20.979Z,92.70
2017-07-20T15:57:48.479Z,92.90
2017-07-20T16:00:15.994Z,93.40
2017-07-20T16:02:44.254Z,92.30
2017-07-20T16:05:12.539Z,92.50
2017-07-20T16:07:40.039Z,92.40
2017-07-20T16:10:07.550Z,91.40
2017-07-20T16:12:35.045Z,91.30
2017-07-20T16:15:02.575Z,91.50
2017-07-20T16:17:30.095Z,92.10
2017-07-20T16:19:57.622Z,92.10
2017-07-20T16:22:25.123Z,92.00
2017-07-20T16:24:52.620Z,92.10
2017-07-20T16:27:20.134Z,92.30
2017-07-20T16:29:47.634Z,91.90
2017-07-20T16:32:15.150Z,90.90
2017-07-20T16:34:42.674Z,91.00
2017-07-20T16:37:10.210Z,90.30
2017-07-20T16:39:37.711Z,90.10
2017-07-20T16:42:05.230Z,87.20
2017-07-20T16:44:32.723Z,86.80
2017-07-20T16:47:00.222Z,87.80
2017-07-20T16:49:27.747Z,86.50
2017-07-20T16:51:55.240Z,87.10
2017-07-20T16:54:22.760Z,86.10
2017-07-20T16:56:50.260Z,89.20
2017-07-20T16:59:17.787Z,86.70
2017-07-20T17:01:45.287Z,86.80
2017-07-20T17:04:13.714Z,86.80
2017-07-20T17:06:41.214Z,88.10
2017-07-20T17:09:09.507Z,89.20
2017-07-20T17:11:37.011Z,89.20
2017-07-20T17:14:04.508Z,90.80
2017-07-20T17:16:32.815Z,91.60
2017-07-20T17:19:00.314Z,91.60
2017-07-20T17:21:27.835Z,92.00
2017-07-20T17:23:55.334Z,91.70
2017-07-20T17:26:22.859Z,91.90
2017-07-20T17:28:50.358Z,92.40
2017-07-20T17:31:17.875Z,92.60
2017-07-20T17:33:45.370Z,92.90
2017-07-20T17:36:12.884Z,92.90
2017-07-20T17:38:40.389Z,93.00
2017-07-20T17:41:07.915Z,92.80
2017-07-20T17:43:35.402Z,92.30
2017-07-20T17:46:02.906Z,91.80
2017-07-20T17:48:30.418Z,91.50
2017-07-20T17:50:57.911Z,91.00
2017-07-20T17:53:25.426Z,91.60
2017-07-20T17:55:52.928Z,92.00
2017-07-20T17:58:20.455Z,91.90
2017-07-20T18:00:47.951Z,91.90
2017-07-20T18:03:15.507Z,91.70
2017-07-20T18:05:43.022Z,91.90
2017-07-20T18:08:10.533Z,91.60
2017-07-20T18:10:38.055Z,91.50
2017-07-20T18:13:06.330Z,92.20
2017-07-20T18:15:33.849Z,92.10
2017-07-20T18:18:01.347Z,92.20
2017-07-20T18:20:28.861Z,91.90
2017-07-20T18:22:56.363Z,92.10
2017-07-20T18:25:23.883Z,92.00
2017-07-20T18:27:51.387Z,92.20
2017-07-20T18:30:19.646Z,92.20
2017-07-20T18:32:47.175Z,92.20
2017-07-20T18:35:14.675Z,92.00
2017-07-20T18:37:42.959Z,91.60
2017-07-20T18:40:11.222Z,92.20
2017-07-20T18:42:38.738Z,92.10
2017-07-20T18:45:06.239Z,92.70
2017-07-20T18:47:33.760Z,93.10
2017-07-20T18:50:01.262Z,93.20
2017-07-20T18:52:28.791Z,93.30
2017-07-20T18:54:56.291Z,93.30
2017-07-20T18:57:23.788Z,93.00
2017-07-20T18:59:51.306Z,93.00
2017-07-20T19:02:18.803Z,93.00
2017-07-20T19:04:46.319Z,93.30
2017-07-20T19:07:13.823Z,93.90
2017-07-20T19:09:41.357Z,93.90
2017-07-20T19:12:08.863Z,94.00
2017-07-20T19:14:36.378Z,94.40
2017-07-20T19:17:03.882Z,94.50
2017-07-20T19:19:31.407Z,94.60
2017-07-20T19:21:58.907Z,95.00
2017-07-20T19:24:26.404Z,95.10
2017-07-20T19:26:53.922Z,95.50
2017-07-20T19:29:21.431Z,95.80
2017-07-20T19:31:48.952Z,96.20
2017-07-20T19:34:16.479Z,96.10
2017-07-20T19:36:44.011Z,96.20
2017-07-20T19:39:11.514Z,96.30
2017-07-20T19:41:39.039Z,96.60
2017-07-20T19:44:06.534Z,97.00
2017-07-20T19:46:34.827Z,96.90
2017-07-20T19:49:03.099Z,96.70
2017-07-20T19:51:31.367Z,96.60
2017-07-20T19:53:58.919Z,96.60
2017-07-20T19:56:26.419Z,96.60
2017-07-20T19:58:53.943Z,96.50
2017-07-20T20:01:21.454Z,96.50
2017-07-20T20:03:48.978Z,96.40
2017-07-20T20:06:16.482Z,96.60
2017-07-20T20:08:44.003Z,96.40
2017-07-20T20:11:11.511Z,96.40
2017-07-20T20:13:39.012Z,95.90
2017-07-20T20:16:06.531Z,96.10
2017-07-20T20:18:34.035Z,95.90
2017-07-20T20:21:01.556Z,96.10
2017-07-20T20:23:29.059Z,96.00
2017-07-20T20:25:56.579Z,95.90
2017-07-20T20:28:24.840Z,96.40
2017-07-20T20:30:52.346Z,96.40
2017-07-20T20:33:19.887Z,96.90
2017-07-20T20:35:47.398Z,96.30
2017-07-20T20:38:14.911Z,96.30
2017-07-20T20:40:42.411Z,96.50
2017-07-20T20:43:09.939Z,96.70
2017-07-20T20:45:37.442Z,96.60
2017-07-20T20:48:04.942Z,96.70
2017-07-20T20:50:32.458Z,96.80
2017-07-20T20:52:59.950Z,96.30
2017-07-20T20:55:27.466Z,96.10
2017-07-20T20:57:54.962Z,96.00
2017-07-20T21:00:23.246Z,95.70
2017-07-20T21:02:50.747Z,95.70
2017-07-20T21:05:18.263Z,95.50
2017-07-20T21:07:45.764Z,95.80
2017-07-20T21:10:13.278Z,96.10
2017-07-20T21:12:40.794Z,96.40
2017-07-20T21:15:08.303Z,96.40
2017-07-20T21:17:35.840Z,96.60
2017-07-20T21:20:04.106Z,96.50
2017-07-20T21:22:31.630Z,96.50
2017-07-20T21:24:59.131Z,96.50
2017-07-20T21:27:26.659Z,96.30
2017-07-20T21:29:54.202Z,96.20
2017-07-20T21:32:21.712Z,96.10
2017-07-20T21:34:49.222Z,96.20
2017-07-20T21:37:16.718Z,96.40
2017-07-20T21:39:44.234Z,96.50
2017-07-20T21:42:11.731Z,96.60
2017-07-20T21:44:39.254Z,96.50
2017-07-20T21:47:06.752Z,96.40
2017-07-20T21:49:35.024Z,96.70
2017-07-20T21:52:02.539Z,96.60
2017-07-20T21:54:30.035Z,96.70
2017-07-20T21:56:57.546Z,96.90
2017-07-20T21:59:25.039Z,97.10
2017-07-20T22:01:52.559Z,97.30
2017-07-20T22:04:20.063Z,97.30
2017-07-20T22:06:47.559Z,97.30
2017-07-20T22:09:15.078Z,97.40
2017-07-20T22:11:42.578Z,97.30
2017-07-20T22:14:10.095Z,97.40
2017-07-20T22:16:37.605Z,97.50
2017-07-20T22:19:05.121Z,97.50
2017-07-20T22:21:32.620Z,97.60
2017-07-20T22:24:00.119Z,97.50
2017-07-20T22:26:27.631Z,97.40
2017-07-20T22:28:55.142Z,97.50
2017-07-20T22:31:22.652Z,97.50
2017-07-20T22:33:50.151Z,97.30
2017-07-20T22:36:17.685Z,97.20
2017-07-20T22:38:45.189Z,97.20
2017-07-20T22:41:13.500Z,97.20
2017-07-20T22:43:41.010Z,97.20
2017-07-20T22:46:08.506Z,97.30
2017-07-20T22:48:36.023Z,97.40
2017-07-20T22:51:03.521Z,97.40
2017-07-20T22:53:31.022Z,97.40
2017-07-20T22:55:58.534Z,97.50
2017-07-20T22:58:26.041Z,97.50
2017-07-20T23:00:53.583Z,97.60
2017-07-20T23:03:21.087Z,97.50
2017-07-20T23:05:49.352Z,97.50
2017-07-20T23:08:16.874Z,97.40
2017-07-20T23:10:44.366Z,97.10
2017-07-20T23:13:11.890Z,97.10
2017-07-20T23:15:39.382Z,97.00
2017-07-20T23:18:06.883Z,97.00
2017-07-20T23:20:34.394Z,97.00
2017-07-20T23:23:01.890Z,97.10
2017-07-20T23:25:29.410Z,97.20
2017-07-20T23:27:56.898Z,96.80
2017-07-20T23:30:25.162Z,96.70
2017-07-20T23:32:53.438Z,96.80
2017-07-20T23:35:21.699Z,96.80
2017-07-20T23:37:49.215Z,96.80
2017-07-20T23:40:16.717Z,96.90
2017-07-20T23:42:44.215Z,96.90
2017-07-20T23:45:11.731Z,97.00
2017-07-20T23:47:39.227Z,96.90
2017-07-20T23:50:06.742Z,96.80
2017-07-20T23:52:34.251Z,96.70
2017-07-20T23:55:01.753Z,96.80
2017-07-20T23:57:29.264Z,96.80
2017-07-20T23:59:56.758Z,96.80
